createdAt,value
2023-12-19T00:01:49.366Z,38.54
2023-12-19T00:04:17.989Z,37.29
2023-12-19T00:06:46.518Z,38.50
2023-12-19T00:09:15.079Z,37.50
2023-12-19T00:11:43.534Z,37.39
2023-12-19T00:14:11.929Z,37.50
2023-12-19T00:16:40.438Z,37.38
2023-12-19T00:19:10.773Z,38.95
2023-12-19T00:21:39.480Z,38.79
2023-12-19T00:24:08.082Z,37.62
2023-12-19T00:26:36.658Z,36.52
2023-12-19T00:29:05.957Z,37.62
2023-12-19T00:31:34.828Z,37.73
2023-12-19T00:34:03.457Z,38.07
2023-12-19T00:36:32.154Z,37.87
2023-12-19T00:39:00.915Z,37.04
2023-12-19T00:41:29.465Z,38.67
2023-12-19T00:43:57.968Z,39.19
2023-12-19T00:46:26.373Z,38.76
2023-12-19T00:48:55.977Z,37.39
2023-12-19T00:51:24.551Z,37.45
2023-12-19T00:53:53.035Z,38.24
2023-12-19T00:56:22.793Z,38.50
2023-12-19T00:58:51.347Z,37.99
2023-12-19T01:01:24.626Z,38.59
2023-12-19T01:03:53.306Z,38.23
2023-12-19T01:06:21.935Z,38.06
2023-12-19T01:08:50.618Z,39.08
2023-12-19T01:11:19.338Z,37.72
2023-12-19T01:13:47.729Z,37.29
2023-12-19T01:16:17.156Z,38.87
2023-12-19T01:18:45.761Z,37.85
2023-12-19T01:21:14.738Z,37.83
2023-12-19T01:23:43.928Z,40.04
2023-12-19T01:26:16.475Z,39.01
2023-12-19T01:28:48.985Z,39.87
2023-12-19T01:31:17.740Z,39.34
2023-12-19T01:33:46.421Z,40.51
2023-12-19T01:36:14.938Z,38.81
2023-12-19T01:38:43.363Z,38.36
2023-12-19T01:41:12.908Z,40.05
2023-12-19T01:43:41.432Z,40.91
2023-12-19T01:46:15.314Z,41.06
2023-12-19T01:48:44.424Z,40.93
2023-12-19T01:51:13.748Z,40.14
2023-12-19T01:53:45.661Z,40.65
2023-12-19T01:56:16.991Z,39.29
2023-12-19T01:58:46.843Z,39.57
2023-12-19T02:01:17.462Z,40.10
2023-12-19T02:03:47.313Z,38.31
2023-12-19T02:06:18.832Z,39.36
2023-12-19T02:08:47.503Z,37.77
2023-12-19T02:11:16.141Z,38.27
2023-12-19T02:13:46.284Z,38.51
2023-12-19T02:16:14.827Z,39.32
2023-12-19T02:18:44.549Z,38.89
2023-12-19T02:21:13.165Z,37.92
2023-12-19T02:23:41.624Z,39.61
2023-12-19T02:26:10.623Z,38.01
2023-12-19T02:28:39.063Z,40.24
2023-12-19T02:31:07.523Z,39.83
2023-12-19T02:33:36.217Z,40.32
2023-12-19T02:36:05.035Z,38.42
2023-12-19T02:38:33.502Z,40.08
2023-12-19T02:41:01.909Z,38.90
2023-12-19T02:43:30.419Z,38.76
2023-12-19T02:45:58.912Z,39.51
2023-12-19T02:48:27.511Z,39.57
2023-12-19T02:50:56.085Z,37.87
2023-12-19T02:53:24.602Z,37.63
2023-12-19T02:55:53.012Z,37.72
2023-12-19T02:58:21.836Z,37.89
2023-12-19T03:00:50.389Z,37.73
2023-12-19T03:03:18.889Z,38.59
2023-12-19T03:05:47.425Z,37.95
2023-12-19T03:08:16.000Z,39.81
2023-12-19T03:10:44.463Z,38.33
2023-12-19T03:13:12.966Z,39.46
2023-12-19T03:15:41.513Z,39.55
2023-12-19T03:18:10.333Z,40.75
2023-12-19T03:20:38.896Z,40.09
2023-12-19T03:23:07.349Z,40.60
2023-12-19T03:25:35.796Z,38.99
2023-12-19T03:28:04.817Z,41.14
2023-12-19T03:30:33.324Z,39.05
2023-12-19T03:33:01.883Z,38.91
2023-12-19T03:35:30.337Z,39.01
2023-12-19T03:37:59.249Z,39.66
2023-12-19T03:40:27.896Z,39.00
2023-12-19T03:42:56.381Z,38.51
2023-12-19T03:45:24.946Z,39.06
2023-12-19T03:47:53.577Z,39.13
2023-12-19T03:50:22.081Z,40.25
2023-12-19T03:52:50.944Z,39.21
2023-12-19T03:55:19.367Z,40.01
2023-12-19T03:57:47.831Z,40.25
2023-12-19T04:00:16.336Z,40.14
2023-12-19T04:02:44.971Z,39.89
2023-12-19T04:05:13.641Z,40.76
2023-12-19T04:07:42.090Z,40.97
2023-12-19T04:10:10.949Z,39.40
2023-12-19T04:12:39.573Z,38.95
2023-12-19T04:15:09.648Z,39.91
2023-12-19T04:17:38.185Z,41.28
2023-12-19T04:20:07.163Z,39.43
2023-12-19T04:22:35.707Z,39.46
2023-12-19T04:25:04.496Z,38.08
2023-12-19T04:27:33.332Z,39.15
2023-12-19T04:30:01.861Z,39.27
2023-12-19T04:32:30.354Z,42.00
2023-12-19T04:34:58.957Z,41.53
2023-12-19T04:37:27.485Z,40.60
2023-12-19T04:39:56.110Z,40.06
2023-12-19T04:42:25.406Z,40.70
2023-12-19T04:44:53.948Z,40.11
2023-12-19T04:47:22.550Z,40.92
2023-12-19T04:49:51.010Z,40.25
2023-12-19T04:52:20.131Z,39.50
2023-12-19T04:54:48.628Z,38.08
2023-12-19T04:57:17.067Z,39.40
2023-12-19T04:59:45.517Z,39.09
2023-12-19T05:02:13.948Z,39.36
2023-12-19T05:04:42.323Z,40.41
2023-12-19T05:07:11.762Z,39.68
2023-12-19T05:09:40.398Z,40.91
2023-12-19T05:12:08.920Z,40.73
2023-12-19T05:14:38.146Z,39.38
2023-12-19T05:17:07.391Z,39.37
2023-12-19T05:19:40.186Z,40.89
2023-12-19T05:22:12.567Z,39.83
2023-12-19T05:24:43.245Z,41.92
2023-12-19T05:27:11.797Z,39.57
2023-12-19T05:29:40.912Z,40.28
2023-12-19T05:32:09.439Z,40.95
2023-12-19T05:34:38.052Z,40.12
2023-12-19T05:37:06.695Z,40.97
2023-12-19T05:39:35.190Z,40.95
2023-12-19T05:42:04.275Z,39.63
2023-12-19T05:44:32.672Z,40.72
2023-12-19T05:47:01.192Z,39.75
2023-12-19T05:49:29.717Z,40.10
2023-12-19T05:51:59.071Z,39.23
2023-12-19T05:54:27.670Z,40.40
2023-12-19T05:56:56.136Z,39.29
2023-12-19T05:59:24.732Z,39.20
2023-12-19T06:01:53.240Z,38.88
2023-12-19T06:04:21.908Z,40.37
2023-12-19T06:06:50.581Z,39.53
2023-12-19T06:09:19.100Z,39.04
2023-12-19T06:11:47.532Z,38.94
2023-12-19T06:14:16.557Z,39.33
2023-12-19T06:16:45.193Z,38.76
2023-12-19T06:19:19.738Z,39.46
2023-12-19T06:21:48.211Z,41.70
2023-12-19T06:24:16.620Z,40.13
2023-12-19T06:26:47.542Z,38.59
2023-12-19T06:29:16.358Z,38.67
2023-12-19T06:31:50.437Z,38.46
2023-12-19T06:34:19.005Z,41.81
2023-12-19T06:36:47.548Z,41.07
2023-12-19T06:39:18.693Z,38.70
2023-12-19T06:41:47.119Z,39.98
2023-12-19T06:44:15.650Z,40.62
2023-12-19T06:46:46.511Z,40.65
2023-12-19T06:49:18.757Z,39.67
2023-12-19T06:51:49.786Z,40.53
2023-12-19T06:54:18.202Z,40.12
2023-12-19T06:56:46.664Z,38.65
2023-12-19T06:59:17.985Z,38.69
2023-12-19T07:01:46.554Z,40.31
2023-12-19T07:04:15.132Z,39.81
2023-12-19T07:06:46.068Z,39.57
2023-12-19T07:09:15.790Z,38.75
2023-12-19T07:11:44.316Z,38.95
2023-12-19T07:14:15.716Z,37.96
2023-12-19T07:16:44.773Z,39.23
2023-12-19T07:19:13.463Z,39.23
2023-12-19T07:21:47.242Z,38.25
2023-12-19T07:24:15.690Z,38.86
2023-12-19T07:26:44.175Z,38.55
2023-12-19T07:29:15.158Z,38.69
2023-12-19T07:31:43.616Z,39.40
2023-12-19T07:34:12.291Z,39.93
2023-12-19T07:36:43.221Z,40.64
2023-12-19T07:39:11.673Z,39.00
2023-12-19T07:41:40.203Z,38.54
2023-12-19T07:44:12.926Z,37.99
2023-12-19T07:46:42.505Z,38.16
2023-12-19T07:49:11.758Z,39.72
2023-12-19T07:51:42.977Z,39.14
2023-12-19T07:54:11.547Z,39.28
2023-12-19T07:56:45.871Z,38.56
2023-12-19T07:59:14.567Z,41.37
2023-12-19T08:01:51.071Z,38.78
2023-12-19T08:04:19.941Z,38.31
2023-12-19T08:06:48.750Z,38.40
2023-12-19T08:09:20.209Z,37.88
2023-12-19T08:11:49.296Z,38.73
2023-12-19T08:14:17.862Z,39.52
2023-12-19T08:16:48.733Z,37.76
2023-12-19T08:19:20.577Z,37.09
2023-12-19T08:21:58.472Z,37.38
2023-12-19T08:24:28.082Z,36.94
2023-12-19T08:26:56.541Z,38.76
2023-12-19T08:29:27.352Z,38.89
2023-12-19T08:31:55.778Z,38.01
2023-12-19T08:34:24.323Z,38.81
2023-12-19T08:36:55.395Z,37.79
2023-12-19T08:39:23.906Z,39.24
2023-12-19T08:41:52.336Z,38.39
2023-12-19T08:44:23.294Z,38.84
2023-12-19T08:46:51.686Z,38.39
2023-12-19T08:49:20.366Z,37.91
2023-12-19T08:51:49.571Z,37.85
2023-12-19T08:54:18.152Z,38.88
2023-12-19T08:56:46.999Z,38.57
2023-12-19T08:59:15.502Z,38.22
2023-12-19T09:01:44.050Z,38.36
2023-12-19T09:04:12.662Z,37.71
2023-12-19T09:06:41.257Z,38.06
2023-12-19T09:09:13.102Z,38.89
2023-12-19T09:11:42.198Z,39.35
2023-12-19T09:14:13.717Z,39.67
2023-12-19T09:16:43.854Z,39.12
2023-12-19T09:19:15.811Z,40.32
2023-12-19T09:21:44.778Z,38.56
2023-12-19T09:24:13.446Z,39.74
2023-12-19T09:26:41.930Z,38.44
2023-12-19T09:29:10.433Z,38.91
2023-12-19T09:31:39.088Z,39.68
2023-12-19T09:34:11.816Z,39.38
2023-12-19T09:36:50.604Z,40.36
2023-12-19T09:39:25.226Z,39.02
2023-12-19T09:41:54.597Z,40.67
2023-12-19T09:44:26.183Z,41.50
2023-12-19T09:46:55.224Z,41.75
2023-12-19T09:49:25.335Z,40.66
2023-12-19T09:51:55.052Z,40.88
2023-12-19T09:54:24.474Z,40.42
2023-12-19T09:56:57.729Z,41.05
2023-12-19T09:59:27.740Z,41.08
2023-12-19T10:01:57.612Z,40.02
2023-12-19T10:04:26.266Z,39.95
2023-12-19T10:07:01.819Z,39.96
2023-12-19T10:09:30.531Z,39.52
2023-12-19T10:12:06.975Z,39.71
2023-12-19T10:14:35.513Z,41.72
2023-12-19T10:17:08.188Z,41.52
2023-12-19T10:19:39.584Z,40.56
2023-12-19T10:22:09.912Z,41.62
2023-12-19T10:24:39.478Z,42.83
2023-12-19T10:27:08.316Z,43.17
2023-12-19T10:29:40.249Z,41.47
2023-12-19T10:32:19.234Z,40.31
2023-12-19T10:34:56.429Z,41.02
2023-12-19T10:37:36.571Z,40.23
2023-12-19T10:40:20.921Z,39.38
2023-12-19T10:42:57.129Z,40.50
2023-12-19T10:45:26.185Z,42.57
2023-12-19T10:47:55.058Z,42.75
2023-12-19T10:50:24.080Z,42.45
2023-12-19T10:52:55.765Z,40.80
2023-12-19T10:55:28.625Z,40.83
2023-12-19T10:57:59.539Z,40.18
2023-12-19T11:00:28.711Z,43.12
2023-12-19T11:03:12.362Z,42.33
2023-12-19T11:05:49.905Z,42.48
2023-12-19T11:08:23.230Z,42.81
2023-12-19T11:11:03.687Z,41.96
2023-12-19T11:13:34.324Z,43.29
2023-12-19T11:16:20.755Z,41.74
2023-12-19T11:18:58.780Z,42.49
2023-12-19T11:21:43.326Z,41.83
2023-12-19T11:24:31.978Z,42.41
2023-12-19T11:27:19.937Z,40.69
2023-12-19T11:29:55.136Z,43.23
2023-12-19T11:32:30.357Z,41.64
2023-12-19T11:35:11.216Z,39.83
2023-12-19T11:37:47.298Z,40.69
2023-12-19T11:40:48.222Z,42.45
2023-12-19T11:43:29.003Z,41.80
2023-12-19T11:46:18.068Z,41.77
2023-12-19T11:48:51.001Z,41.49
2023-12-19T11:51:44.530Z,40.56
2023-12-19T11:54:14.474Z,41.42
2023-12-19T11:56:43.843Z,41.97
2023-12-19T11:59:12.861Z,40.84
2023-12-19T12:01:42.552Z,41.57
2023-12-19T12:04:12.151Z,40.04
2023-12-19T12:06:43.236Z,41.06
2023-12-19T12:09:11.963Z,40.59
2023-12-19T12:11:52.474Z,40.13
2023-12-19T12:14:22.838Z,40.73
2023-12-19T12:16:52.733Z,40.40
2023-12-19T12:19:23.819Z,42.82
2023-12-19T12:21:54.163Z,40.49
2023-12-19T12:24:32.654Z,40.75
2023-12-19T12:27:12.243Z,41.81
2023-12-19T12:29:41.704Z,42.45
2023-12-19T12:32:10.574Z,41.57
2023-12-19T12:34:39.262Z,40.10
2023-12-19T12:37:08.212Z,42.94
2023-12-19T12:39:36.925Z,41.60
2023-12-19T12:42:07.126Z,40.48
2023-12-19T12:44:36.296Z,40.11
2023-12-19T12:47:06.859Z,40.55
2023-12-19T12:49:36.760Z,41.07
2023-12-19T12:52:05.894Z,42.19
2023-12-19T12:54:34.449Z,39.76
2023-12-19T12:57:13.196Z,41.49
2023-12-19T12:59:41.868Z,41.10
2023-12-19T13:02:10.589Z,38.87
2023-12-19T13:04:39.045Z,40.34
2023-12-19T13:07:07.659Z,41.09
2023-12-19T13:09:36.519Z,42.30
2023-12-19T13:12:05.208Z,41.32
2023-12-19T13:14:33.839Z,40.12
2023-12-19T13:17:02.877Z,41.17
2023-12-19T13:19:31.378Z,40.04
2023-12-19T13:22:00.033Z,40.04
2023-12-19T13:24:28.624Z,38.89
2023-12-19T13:26:57.966Z,39.04
2023-12-19T13:29:26.446Z,41.27
2023-12-19T13:31:55.046Z,40.42
2023-12-19T13:34:25.031Z,39.17
2023-12-19T13:36:53.822Z,40.54
2023-12-19T13:39:22.380Z,40.07
2023-12-19T13:41:53.325Z,40.03
2023-12-19T13:44:22.206Z,42.34
2023-12-19T13:46:51.658Z,40.68
2023-12-19T13:49:20.580Z,41.53
2023-12-19T13:51:49.294Z,40.80
2023-12-19T13:54:18.070Z,40.39
2023-12-19T13:56:46.630Z,40.52
2023-12-19T13:59:15.112Z,40.69
2023-12-19T14:01:43.990Z,40.16
2023-12-19T14:04:14.316Z,40.04
2023-12-19T14:06:45.579Z,42.21
2023-12-19T14:09:20.143Z,40.99
2023-12-19T14:11:49.309Z,40.56
2023-12-19T14:14:20.069Z,41.67
2023-12-19T14:16:48.606Z,41.71
2023-12-19T14:19:17.173Z,40.39
2023-12-19T14:21:46.491Z,39.59
2023-12-19T14:24:16.019Z,42.65
2023-12-19T14:26:45.609Z,40.66
2023-12-19T14:29:14.179Z,39.68
2023-12-19T14:31:45.806Z,41.87
2023-12-19T14:34:14.465Z,41.85
2023-12-19T14:36:47.252Z,40.91
2023-12-19T14:39:16.625Z,41.20
2023-12-19T14:41:48.099Z,39.57
2023-12-19T14:44:17.118Z,40.24
2023-12-19T14:46:45.727Z,40.28
2023-12-19T14:49:14.305Z,39.51
2023-12-19T14:51:43.075Z,38.47
2023-12-19T14:54:11.634Z,39.86
2023-12-19T14:56:40.180Z,39.97
2023-12-19T14:59:10.364Z,41.20
2023-12-19T15:01:39.023Z,41.07
2023-12-19T15:04:08.548Z,40.44
2023-12-19T15:06:38.845Z,39.93
2023-12-19T15:09:08.600Z,40.59
2023-12-19T15:11:37.498Z,39.04
2023-12-19T15:14:06.052Z,39.63
2023-12-19T15:16:34.848Z,41.72
2023-12-19T15:19:03.493Z,38.91
2023-12-19T15:21:32.040Z,39.85
2023-12-19T15:24:00.634Z,40.03
2023-12-19T15:26:29.105Z,38.82
2023-12-19T15:28:57.593Z,39.05
2023-12-19T15:31:26.208Z,39.18
2023-12-19T15:33:55.707Z,39.72
2023-12-19T15:36:24.245Z,39.90
2023-12-19T15:38:52.814Z,39.48
2023-12-19T15:41:22.044Z,39.47
2023-12-19T15:43:58.252Z,39.48
2023-12-19T15:46:34.462Z,38.33
2023-12-19T15:49:04.533Z,38.66
2023-12-19T15:51:33.613Z,39.95
2023-12-19T15:54:04.102Z,40.61
2023-12-19T15:56:33.756Z,38.89
2023-12-19T15:59:04.589Z,39.72
2023-12-19T16:01:33.612Z,38.44
2023-12-19T16:04:02.737Z,38.34
2023-12-19T16:06:32.569Z,37.73
2023-12-19T16:09:01.453Z,41.10
2023-12-19T16:11:30.224Z,41.53
2023-12-19T16:13:58.714Z,41.02
2023-12-19T16:16:27.251Z,42.39
2023-12-19T16:18:56.754Z,40.91
2023-12-19T16:21:25.962Z,39.52
2023-12-19T16:24:01.587Z,38.49
2023-12-19T16:26:33.267Z,38.84
2023-12-19T16:29:02.415Z,41.10
2023-12-19T16:31:33.060Z,42.45
2023-12-19T16:34:03.114Z,40.76
2023-12-19T16:36:32.024Z,41.63
2023-12-19T16:39:00.737Z,41.85
2023-12-19T16:41:30.124Z,39.78
2023-12-19T16:43:58.710Z,40.64
2023-12-19T16:46:32.873Z,40.02
2023-12-19T16:49:08.745Z,39.07
2023-12-19T16:51:37.734Z,39.03
2023-12-19T16:54:06.549Z,38.91
2023-12-19T16:56:36.725Z,38.93
2023-12-19T16:59:06.618Z,40.15
2023-12-19T17:01:35.218Z,40.94
2023-12-19T17:04:03.888Z,41.93
2023-12-19T17:06:32.791Z,40.42
2023-12-19T17:09:03.554Z,39.85
2023-12-19T17:11:31.973Z,39.16
2023-12-19T17:14:00.471Z,39.02
2023-12-19T17:16:29.189Z,40.35
2023-12-19T17:18:58.226Z,43.37
2023-12-19T17:21:26.717Z,42.42
2023-12-19T17:23:55.090Z,43.26
2023-12-19T17:26:25.563Z,43.50
2023-12-19T17:28:54.480Z,41.89
2023-12-19T17:31:23.051Z,42.58
2023-12-19T17:33:51.732Z,41.54
2023-12-19T17:36:22.314Z,40.47
2023-12-19T17:38:51.130Z,40.12
2023-12-19T17:41:20.411Z,39.97
2023-12-19T17:43:48.953Z,39.49
2023-12-19T17:46:18.383Z,40.82
2023-12-19T17:48:47.023Z,38.89
2023-12-19T17:51:15.638Z,39.43
2023-12-19T17:53:44.185Z,42.02
2023-12-19T17:56:12.724Z,41.01
2023-12-19T17:58:41.361Z,41.20
2023-12-19T18:01:10.341Z,40.78
2023-12-19T18:03:39.094Z,40.22
2023-12-19T18:06:07.671Z,43.64
2023-12-19T18:08:41.605Z,42.84
2023-12-19T18:11:10.052Z,43.53
2023-12-19T18:13:38.560Z,43.79
2023-12-19T18:16:07.609Z,42.35
2023-12-19T18:18:36.519Z,41.28
2023-12-19T18:21:05.248Z,42.07
2023-12-19T18:23:35.901Z,42.10
2023-12-19T18:26:06.800Z,40.17
2023-12-19T18:28:35.830Z,40.81
2023-12-19T18:31:04.608Z,41.67
2023-12-19T18:33:33.388Z,39.43
2023-12-19T18:36:02.818Z,39.80
2023-12-19T18:38:31.456Z,40.37
2023-12-19T18:40:59.899Z,38.93
2023-12-19T18:43:28.480Z,38.26
2023-12-19T18:45:57.035Z,39.40
2023-12-19T18:48:26.481Z,38.57
2023-12-19T18:50:54.943Z,38.34
2023-12-19T18:53:24.218Z,37.99
2023-12-19T18:55:52.678Z,38.11
2023-12-19T18:58:21.330Z,39.12
2023-12-19T19:00:50.291Z,38.09
2023-12-19T19:03:19.606Z,39.20
2023-12-19T19:05:48.758Z,39.19
2023-12-19T19:08:17.276Z,38.89
2023-12-19T19:10:45.993Z,39.54
2023-12-19T19:13:16.979Z,38.86
2023-12-19T19:15:45.824Z,39.08
2023-12-19T19:18:14.397Z,39.48
2023-12-19T19:20:43.701Z,38.38
2023-12-19T19:23:17.115Z,38.68
2023-12-19T19:25:46.616Z,38.62
2023-12-19T19:28:17.552Z,38.36
2023-12-19T19:30:48.373Z,38.65
2023-12-19T19:33:17.128Z,38.47
2023-12-19T19:35:45.636Z,38.14
2023-12-19T19:38:14.231Z,39.29
2023-12-19T19:40:44.607Z,38.01
2023-12-19T19:43:13.497Z,39.16
2023-12-19T19:45:42.122Z,39.73
2023-12-19T19:48:12.285Z,42.50
2023-12-19T19:50:42.618Z,39.61
2023-12-19T19:53:11.261Z,38.76
2023-12-19T19:55:40.019Z,39.62
2023-12-19T19:58:08.524Z,38.85
2023-12-19T20:00:38.161Z,38.84
2023-12-19T20:03:07.185Z,40.17
2023-12-19T20:05:36.018Z,39.87
2023-12-19T20:08:04.903Z,41.62
2023-12-19T20:10:33.351Z,41.62
2023-12-19T20:13:01.873Z,41.34
2023-12-19T20:15:30.333Z,40.98
2023-12-19T20:17:58.906Z,40.63
2023-12-19T20:20:27.331Z,39.36
2023-12-19T20:22:55.746Z,38.73
2023-12-19T20:25:24.340Z,39.63
2023-12-19T20:27:53.370Z,39.31
2023-12-19T20:30:22.099Z,41.02
2023-12-19T20:32:51.067Z,40.56
2023-12-19T20:35:19.809Z,41.43
2023-12-19T20:37:48.453Z,41.44
2023-12-19T20:40:19.025Z,42.40
2023-12-19T20:42:48.327Z,40.14
2023-12-19T20:45:17.272Z,41.39
2023-12-19T20:47:45.868Z,42.14
2023-12-19T20:50:14.500Z,41.18
2023-12-19T20:52:50.633Z,40.57
2023-12-19T20:55:25.558Z,40.46
2023-12-19T20:57:54.727Z,40.23
2023-12-19T21:00:26.428Z,41.42
2023-12-19T21:02:55.099Z,42.21
2023-12-19T21:05:23.731Z,42.39
2023-12-19T21:07:52.368Z,40.85
2023-12-19T21:10:21.067Z,40.40
2023-12-19T21:12:50.082Z,39.99
2023-12-19T21:15:18.800Z,41.01
2023-12-19T21:17:47.405Z,43.55
2023-12-19T21:20:16.065Z,42.13
2023-12-19T21:22:44.861Z,41.01
2023-12-19T21:25:13.991Z,41.93
2023-12-19T21:27:42.608Z,42.33
2023-12-19T21:30:11.611Z,42.48
2023-12-19T21:32:42.226Z,42.69
2023-12-19T21:35:11.486Z,43.07
2023-12-19T21:37:40.088Z,47.11
2023-12-19T21:40:09.097Z,46.22
2023-12-19T21:42:37.930Z,45.41
2023-12-19T21:45:06.903Z,44.88
2023-12-19T21:47:35.667Z,45.22
2023-12-19T21:50:04.858Z,43.77
2023-12-19T21:52:33.561Z,42.43
2023-12-19T21:55:04.520Z,41.28
2023-12-19T21:57:34.313Z,43.02
2023-12-19T22:00:03.792Z,41.20
2023-12-19T22:02:32.307Z,41.24
2023-12-19T22:05:01.027Z,40.38
2023-12-19T22:07:29.985Z,39.02
2023-12-19T22:10:02.718Z,38.31
2023-12-19T22:12:32.416Z,39.10
2023-12-19T22:15:01.180Z,37.94
2023-12-19T22:17:29.754Z,38.00
2023-12-19T22:19:58.657Z,38.15
2023-12-19T22:22:27.400Z,38.75
2023-12-19T22:24:55.971Z,38.04
2023-12-19T22:27:24.523Z,37.57
2023-12-19T22:29:53.967Z,38.05
2023-12-19T22:32:22.563Z,38.39
2023-12-19T22:34:51.532Z,39.17
2023-12-19T22:37:20.038Z,39.75
2023-12-19T22:39:49.133Z,38.58
2023-12-19T22:42:17.602Z,38.18
2023-12-19T22:44:46.095Z,39.32
2023-12-19T22:47:15.262Z,39.44
2023-12-19T22:49:43.831Z,38.06
2023-12-19T22:52:12.405Z,38.23
2023-12-19T22:54:41.481Z,38.71
2023-12-19T22:57:10.154Z,38.04
2023-12-19T22:59:38.902Z,39.99
2023-12-19T23:02:07.690Z,40.17
2023-12-19T23:04:41.243Z,38.67
2023-12-19T23:07:09.917Z,38.73
2023-12-19T23:09:45.284Z,40.53
2023-12-19T23:12:14.514Z,40.83
2023-12-19T23:14:43.791Z,40.74
2023-12-19T23:17:12.630Z,41.72
2023-12-19T23:19:41.448Z,38.89
2023-12-19T23:22:10.166Z,41.45
2023-12-19T23:24:38.724Z,40.42
2023-12-19T23:27:07.206Z,39.59
2023-12-19T23:29:35.654Z,40.09
2023-12-19T23:32:04.560Z,40.41
2023-12-19T23:34:33.171Z,40.04
2023-12-19T23:37:01.657Z,39.19
2023-12-19T23:39:30.425Z,39.68
2023-12-19T23:41:59.226Z,39.93
2023-12-19T23:44:27.667Z,39.68
2023-12-19T23:46:56.144Z,38.47
2023-12-19T23:49:24.669Z,38.48
2023-12-19T23:51:53.233Z,39.17
2023-12-19T23:54:21.787Z,40.48
2023-12-19T23:56:50.287Z,41.35
2023-12-19T23:59:18.730Z,40.08
